sensor_id;sensor_type;location;lat;lon;timestamp;pressure;altitude;pressure_sealevel;temperature;humidity
11808;BME280;5961;42.640;23.380;2023-03-24T00:02:14;94133.25;;;10.58;76.29
11808;BME280;5961;42.640;23.380;2023-03-24T00:04:41;94127.16;;;10.58;76.46
11808;BME280;5961;42.640;23.380;2023-03-24T00:07:08;94121.44;;;10.68;76.42
11808;BME280;5961;42.640;23.380;2023-03-24T00:09:39;94127.00;;;10.75;76.66
11808;BME280;5961;42.640;23.380;2023-03-24T00:12:06;94119.47;;;10.77;76.87
11808;BME280;5961;42.640;23.380;2023-03-24T00:14:33;94124.78;;;10.89;76.66
11808;BME280;5961;42.640;23.380;2023-03-24T00:17:00;94124.78;;;10.89;76.52
11808;BME280;5961;42.640;23.380;2023-03-24T00:19:29;94128.34;;;10.93;76.60
11808;BME280;5961;42.640;23.380;2023-03-24T00:21:58;94120.81;;;10.95;76.67
11808;BME280;5961;42.640;23.380;2023-03-24T00:24:25;94120.56;;;11.00;76.79
11808;BME280;5961;42.640;23.380;2023-03-24T00:26:52;94128.13;;;11.10;76.40
11808;BME280;5961;42.640;23.380;2023-03-24T00:29:22;94136.66;;;11.16;76.32
11808;BME280;5961;42.640;23.380;2023-03-24T00:31:50;94142.09;;;11.19;76.39
11808;BME280;5961;42.640;23.380;2023-03-24T00:34:18;94142.66;;;11.25;76.24
11808;BME280;5961;42.640;23.380;2023-03-24T00:36:48;94157.06;;;11.12;75.44
11808;BME280;5961;42.640;23.380;2023-03-24T00:39:15;94136.66;;;11.16;75.26
11808;BME280;5961;42.640;23.380;2023-03-24T00:41:42;94131.44;;;11.07;75.09
11808;BME280;5961;42.640;23.380;2023-03-24T00:44:11;94131.31;;;10.91;75.85
11808;BME280;5961;42.640;23.380;2023-03-24T00:46:42;94125.22;;;10.79;76.19
11808;BME280;5961;42.640;23.380;2023-03-24T00:49:11;94121.44;;;10.68;76.37
11808;BME280;5961;42.640;23.380;2023-03-24T00:51:41;94135.72;;;10.63;76.57
11808;BME280;5961;42.640;23.380;2023-03-24T00:54:12;94121.13;;;10.36;77.08
11808;BME280;5961;42.640;23.380;2023-03-24T00:56:39;94119.59;;;10.35;77.13
11808;BME280;5961;42.640;23.380;2023-03-24T00:59:08;94113.81;;;10.21;77.75
11808;BME280;5961;42.640;23.380;2023-03-24T01:01:35;94117.47;;;10.29;77.60
11808;BME280;5961;42.640;23.380;2023-03-24T01:04:04;94104.59;;;10.19;78.81
11808;BME280;5961;42.640;23.380;2023-03-24T01:06:31;94111.16;;;10.21;78.60
11808;BME280;5961;42.640;23.380;2023-03-24T01:09:00;94126.31;;;10.21;78.47
11808;BME280;5961;42.640;23.380;2023-03-24T01:11:35;94110.22;;;9.84;79.13
11808;BME280;5961;42.640;23.380;2023-03-24T01:14:03;94120.31;;;9.91;79.25
11808;BME280;5961;42.640;23.380;2023-03-24T01:16:30;94110.84;;;9.81;79.19
11808;BME280;5961;42.640;23.380;2023-03-24T01:18:57;94112.03;;;9.72;79.61
11808;BME280;5961;42.640;23.380;2023-03-24T01:21:23;94098.81;;;9.43;80.58
11808;BME280;5961;42.640;23.380;2023-03-24T01:23:50;94107.38;;;9.48;80.76
11808;BME280;5961;42.640;23.380;2023-03-24T01:26:17;94099.84;;;9.29;81.29
11808;BME280;5961;42.640;23.380;2023-03-24T01:28:45;94098.13;;;9.25;82.03
11808;BME280;5961;42.640;23.380;2023-03-24T01:31:12;94097.50;;;9.28;82.39
11808;BME280;5961;42.640;23.380;2023-03-24T01:33:39;94098.03;;;9.21;83.06
11808;BME280;5961;42.640;23.380;2023-03-24T01:36:06;94101.44;;;9.22;83.24
11808;BME280;5961;42.640;23.380;2023-03-24T01:38:33;94099.38;;;9.27;83.27
11808;BME280;5961;42.640;23.380;2023-03-24T01:41:02;94095.03;;;9.23;83.51
11808;BME280;5961;42.640;23.380;2023-03-24T01:43:30;94101.31;;;9.18;83.30
11808;BME280;5961;42.640;23.380;2023-03-24T01:46:12;94093.72;;;9.08;83.33
11808;BME280;5961;42.640;23.380;2023-03-24T01:48:42;94112.38;;;9.20;83.63
11808;BME280;5961;42.640;23.380;2023-03-24T01:51:14;94096.53;;;9.32;83.41
11808;BME280;5961;42.640;23.380;2023-03-24T01:53:50;94082.13;;;9.21;83.23
11808;BME280;5961;42.640;23.380;2023-03-24T01:56:18;94096.97;;;9.34;81.62
11808;BME280;5961;42.640;23.380;2023-03-24T01:58:54;94094.66;;;9.33;81.34
11808;BME280;5961;42.640;23.380;2023-03-24T02:01:23;94103.31;;;9.21;81.69
11808;BME280;5961;42.640;23.380;2023-03-24T02:03:54;94108.00;;;9.24;81.39
11808;BME280;5961;42.640;23.380;2023-03-24T02:06:22;94109.22;;;9.27;82.73
11808;BME280;5961;42.640;23.380;2023-03-24T02:08:52;94106.69;;;9.30;81.53
11808;BME280;5961;42.640;23.380;2023-03-24T02:11:21;94122.19;;;9.20;81.66
11808;BME280;5961;42.640;23.380;2023-03-24T02:13:48;94112.66;;;9.27;81.47
11808;BME280;5961;42.640;23.380;2023-03-24T02:16:32;94119.69;;;9.23;81.98
11808;BME280;5961;42.640;23.380;2023-03-24T02:19:31;94117.34;;;9.22;81.96
11808;BME280;5961;42.640;23.380;2023-03-24T02:22:23;94114.31;;;9.32;82.98
11808;BME280;5961;42.640;23.380;2023-03-24T02:28:02;94109.16;;;9.35;84.04
11808;BME280;5961;42.640;23.380;2023-03-24T02:30:40;94111.16;;;9.38;84.53
11808;BME280;5961;42.640;23.380;2023-03-24T02:33:43;94115.38;;;9.40;85.30
11808;BME280;5961;42.640;23.380;2023-03-24T02:39:36;94115.69;;;9.38;85.24
11808;BME280;5961;42.640;23.380;2023-03-24T02:42:13;94105.59;;;9.31;82.97
11808;BME280;5961;42.640;23.380;2023-03-24T02:44:50;94108.38;;;9.35;82.00
11808;BME280;5961;42.640;23.380;2023-03-24T02:47:24;94081.59;;;8.99;82.34
11808;BME280;5961;42.640;23.380;2023-03-24T02:49:55;94108.34;;;9.14;81.84
11808;BME280;5961;42.640;23.380;2023-03-24T02:52:31;94096.03;;;9.10;81.21
11808;BME280;5961;42.640;23.380;2023-03-24T02:55:08;94084.06;;;9.04;81.40
11808;BME280;5961;42.640;23.380;2023-03-24T02:57:42;94074.09;;;9.01;80.98
11808;BME280;5961;42.640;23.380;2023-03-24T03:00:15;94095.94;;;9.06;80.45
11808;BME280;5961;42.640;23.380;2023-03-24T03:02:47;94088.53;;;8.91;80.42
11808;BME280;5961;42.640;23.380;2023-03-24T03:05:20;94080.38;;;8.96;80.80
11808;BME280;5961;42.640;23.380;2023-03-24T03:07:50;94075.56;;;8.90;81.20
11808;BME280;5961;42.640;23.380;2023-03-24T03:10:22;94067.38;;;8.74;82.02
11808;BME280;5961;42.640;23.380;2023-03-24T03:12:54;94077.03;;;8.78;82.34
11808;BME280;5961;42.640;23.380;2023-03-24T03:15:24;94071.56;;;8.83;81.28
11808;BME280;5961;42.640;23.380;2023-03-24T03:17:55;94065.06;;;8.72;81.08
11808;BME280;5961;42.640;23.380;2023-03-24T03:20:28;94083.97;;;8.92;81.21
11808;BME280;5961;42.640;23.380;2023-03-24T03:23:01;94089.91;;;8.97;80.83
11808;BME280;5961;42.640;23.380;2023-03-24T03:25:35;94074.16;;;8.92;79.70
11808;BME280;5961;42.640;23.380;2023-03-24T03:28:07;94037.50;;;8.65;78.69
11808;BME280;5961;42.640;23.380;2023-03-24T03:30:39;94092.53;;;8.97;78.58
11808;BME280;5961;42.640;23.380;2023-03-24T03:33:10;94088.53;;;8.91;78.54
11808;BME280;5961;42.640;23.380;2023-03-24T03:35:43;94068.03;;;8.71;78.73
11808;BME280;5961;42.640;23.380;2023-03-24T03:38:15;94068.94;;;8.37;80.16
11808;BME280;5961;42.640;23.380;2023-03-24T03:40:49;94063.50;;;8.16;81.44
11808;BME280;5961;42.640;23.380;2023-03-24T03:43:17;94064.38;;;7.91;82.50
11808;BME280;5961;42.640;23.380;2023-03-24T03:45:44;94044.00;;;7.66;83.53
11808;BME280;5961;42.640;23.380;2023-03-24T03:48:11;94062.38;;;7.54;85.18
11808;BME280;5961;42.640;23.380;2023-03-24T03:50:38;94074.34;;;7.51;85.43
11808;BME280;5961;42.640;23.380;2023-03-24T03:53:06;94055.03;;;7.16;86.74
11808;BME280;5961;42.640;23.380;2023-03-24T03:55:34;94050.06;;;7.06;87.92
11808;BME280;5961;42.640;23.380;2023-03-24T03:58:04;94080.84;;;7.19;88.34
11808;BME280;5961;42.640;23.380;2023-03-24T04:00:31;94075.72;;;7.14;89.16
11808;BME280;5961;42.640;23.380;2023-03-24T04:03:21;94077.91;;;7.12;89.43
11808;BME280;5961;42.640;23.380;2023-03-24T04:05:58;94085.06;;;7.12;89.55
11808;BME280;5961;42.640;23.380;2023-03-24T04:08:35;94077.13;;;7.03;89.47
11808;BME280;5961;42.640;23.380;2023-03-24T04:11:15;94089.38;;;6.99;90.17
11808;BME280;5961;42.640;23.380;2023-03-24T04:13:54;94104.44;;;6.90;90.83
11808;BME280;5961;42.640;23.380;2023-03-24T04:16:32;94095.88;;;6.85;91.44
11808;BME280;5961;42.640;23.380;2023-03-24T04:19:16;94055.56;;;6.62;91.22
11808;BME280;5961;42.640;23.380;2023-03-24T04:21:57;94088.84;;;6.80;91.43
11808;BME280;5961;42.640;23.380;2023-03-24T04:24:39;94092.59;;;6.79;91.00
11808;BME280;5961;42.640;23.380;2023-03-24T04:27:11;94103.47;;;6.78;91.40
11808;BME280;5961;42.640;23.380;2023-03-24T04:29:48;94083.69;;;6.67;91.27
11808;BME280;5961;42.640;23.380;2023-03-24T04:32:25;94096.13;;;6.66;92.19
11808;BME280;5961;42.640;23.380;2023-03-24T04:34:56;94090.06;;;6.66;92.05
11808;BME280;5961;42.640;23.380;2023-03-24T04:37:28;94093.94;;;6.68;92.47
11808;BME280;5961;42.640;23.380;2023-03-24T04:39:58;94088.06;;;6.71;92.16
11808;BME280;5961;42.640;23.380;2023-03-24T04:42:29;94051.69;;;6.20;91.57
11808;BME280;5961;42.640;23.380;2023-03-24T04:44:59;94103.91;;;6.71;92.30
11808;BME280;5961;42.640;23.380;2023-03-24T04:47:28;94045.34;;;6.30;91.94
11808;BME280;5961;42.640;23.380;2023-03-24T04:50:01;94111.38;;;6.78;92.14
11808;BME280;5961;42.640;23.380;2023-03-24T04:52:28;94116.53;;;6.83;91.98
11808;BME280;5961;42.640;23.380;2023-03-24T04:54:55;94118.88;;;6.84;91.58
11808;BME280;5961;42.640;23.380;2023-03-24T04:57:22;94120.56;;;6.80;91.85
11808;BME280;5961;42.640;23.380;2023-03-24T04:59:49;94120.22;;;6.73;91.75
11808;BME280;5961;42.640;23.380;2023-03-24T05:02:18;94120.56;;;6.80;91.84
11808;BME280;5961;42.640;23.380;2023-03-24T05:04:45;94096.38;;;6.56;91.92
11808;BME280;5961;42.640;23.380;2023-03-24T05:07:11;94066.53;;;6.47;91.84
11808;BME280;5961;42.640;23.380;2023-03-24T05:09:39;94131.78;;;6.86;91.54
11808;BME280;5961;42.640;23.380;2023-03-24T05:12:06;94128.00;;;6.78;91.89
11808;BME280;5961;42.640;23.380;2023-03-24T05:14:33;94120.34;;;6.68;91.89
11808;BME280;5961;42.640;23.380;2023-03-24T05:17:00;94127.81;;;6.66;92.12
11808;BME280;5961;42.640;23.380;2023-03-24T05:19:29;94129.03;;;6.60;92.88
11808;BME280;5961;42.640;23.380;2023-03-24T05:21:55;94137.31;;;6.76;93.46
11808;BME280;5961;42.640;23.380;2023-03-24T05:24:22;94133.72;;;6.72;93.39
11808;BME280;5961;42.640;23.380;2023-03-24T05:26:49;94137.31;;;6.76;93.40
11808;BME280;5961;42.640;23.380;2023-03-24T05:29:16;94137.34;;;6.84;93.07
11808;BME280;5961;42.640;23.380;2023-03-24T05:31:42;94127.88;;;6.83;93.26
11808;BME280;5961;42.640;23.380;2023-03-24T05:34:10;94143.63;;;6.97;93.24
11808;BME280;5961;42.640;23.380;2023-03-24T05:36:38;94129.66;;;7.05;92.97
11808;BME280;5961;42.640;23.380;2023-03-24T05:39:05;94134.34;;;7.16;92.57
11808;BME280;5961;42.640;23.380;2023-03-24T05:41:31;94132.03;;;7.24;92.75
11808;BME280;5961;42.640;23.380;2023-03-24T05:43:58;94138.72;;;7.38;92.83
11808;BME280;5961;42.640;23.380;2023-03-24T05:46:25;94129.88;;;7.43;92.17
11808;BME280;5961;42.640;23.380;2023-03-24T05:48:52;94142.94;;;7.65;91.76
11808;BME280;5961;42.640;23.380;2023-03-24T05:51:19;94167.09;;;7.72;90.57
11808;BME280;5961;42.640;23.380;2023-03-24T05:53:47;94131.91;;;7.89;89.81
11808;BME280;5961;42.640;23.380;2023-03-24T05:56:13;94137.97;;;7.98;89.10
11808;BME280;5961;42.640;23.380;2023-03-24T05:58:40;94138.28;;;8.05;88.83
11808;BME280;5961;42.640;23.380;2023-03-24T06:01:10;94088.66;;;7.76;88.24
11808;BME280;5961;42.640;23.380;2023-03-24T06:03:38;94146.97;;;8.22;88.35
11808;BME280;5961;42.640;23.380;2023-03-24T06:06:05;94145.44;;;8.30;87.87
11808;BME280;5961;42.640;23.380;2023-03-24T06:08:33;94137.31;;;8.26;88.15
11808;BME280;5961;42.640;23.380;2023-03-24T06:11:02;94161.00;;;8.49;87.66
11808;BME280;5961;42.640;23.380;2023-03-24T06:13:29;94153.31;;;8.56;86.98
11808;BME280;5961;42.640;23.380;2023-03-24T06:15:57;94153.59;;;8.71;86.88
11808;BME280;5961;42.640;23.380;2023-03-24T06:18:24;94154.66;;;8.79;87.06
11808;BME280;5961;42.640;23.380;2023-03-24T06:20:52;94157.72;;;8.90;87.36
11808;BME280;5961;42.640;23.380;2023-03-24T06:23:21;94123.81;;;8.74;86.51
11808;BME280;5961;42.640;23.380;2023-03-24T06:25:50;94152.69;;;9.05;86.61
11808;BME280;5961;42.640;23.380;2023-03-24T06:28:19;94153.88;;;9.16;86.25
11808;BME280;5961;42.640;23.380;2023-03-24T06:30:46;94160.88;;;9.21;85.99
11808;BME280;5961;42.640;23.380;2023-03-24T06:33:13;94157.09;;;9.30;86.15
11808;BME280;5961;42.640;23.380;2023-03-24T06:35:40;94161.69;;;9.42;85.88
11808;BME280;5961;42.640;23.380;2023-03-24T06:38:06;94164.28;;;9.51;85.85
11808;BME280;5961;42.640;23.380;2023-03-24T06:40:33;94161.66;;;9.51;85.95
11808;BME280;5961;42.640;23.380;2023-03-24T06:43:00;94159.50;;;9.65;85.85
11808;BME280;5961;42.640;23.380;2023-03-24T06:45:28;94168.97;;;9.74;85.86
11808;BME280;5961;42.640;23.380;2023-03-24T06:47:55;94165.94;;;9.84;85.25
11808;BME280;5961;42.640;23.380;2023-03-24T06:50:22;94158.56;;;9.90;84.93
11808;BME280;5961;42.640;23.380;2023-03-24T06:52:51;94167.50;;;10.06;84.35
11808;BME280;5961;42.640;23.380;2023-03-24T06:55:18;94168.25;;;10.15;83.31
11808;BME280;5961;42.640;23.380;2023-03-24T06:57:46;94171.59;;;10.24;82.71
11808;BME280;5961;42.640;23.380;2023-03-24T07:00:13;94171.81;;;10.31;82.17
11808;BME280;5961;42.640;23.380;2023-03-24T07:02:41;94174.28;;;10.36;81.15
11808;BME280;5961;42.640;23.380;2023-03-24T07:05:08;94173.31;;;10.41;81.20
11808;BME280;5961;42.640;23.380;2023-03-24T07:07:35;94179.31;;;10.50;81.33
11808;BME280;5961;42.640;23.380;2023-03-24T07:10:03;94184.09;;;10.57;81.12
11808;BME280;5961;42.640;23.380;2023-03-24T07:12:30;94177.47;;;10.63;80.68
11808;BME280;5961;42.640;23.380;2023-03-24T07:14:57;94190.31;;;10.73;80.49
11808;BME280;5961;42.640;23.380;2023-03-24T07:17:24;94188.56;;;10.77;80.31
11808;BME280;5961;42.640;23.380;2023-03-24T07:19:52;94189.59;;;10.84;80.13
11808;BME280;5961;42.640;23.380;2023-03-24T07:22:19;94195.13;;;10.91;80.42
11808;BME280;5961;42.640;23.380;2023-03-24T07:24:45;94196.81;;;10.96;80.06
11808;BME280;5961;42.640;23.380;2023-03-24T07:27:12;94189.94;;;10.95;80.39
11808;BME280;5961;42.640;23.380;2023-03-24T07:29:39;94186.09;;;11.05;80.24
11808;BME280;5961;42.640;23.380;2023-03-24T07:32:05;94181.75;;;11.00;79.83
11808;BME280;5961;42.640;23.380;2023-03-24T07:34:33;94181.31;;;11.10;79.67
11808;BME280;5961;42.640;23.380;2023-03-24T07:37:02;94194.06;;;11.17;78.99
11808;BME280;5961;42.640;23.380;2023-03-24T07:39:29;94186.88;;;11.17;79.19
11808;BME280;5961;42.640;23.380;2023-03-24T07:41:57;94187.22;;;11.28;78.67
11808;BME280;5961;42.640;23.380;2023-03-24T07:44:24;94192.41;;;11.36;78.62
11808;BME280;5961;42.640;23.380;2023-03-24T07:46:50;94172.03;;;11.28;79.06
11808;BME280;5961;42.640;23.380;2023-03-24T07:49:17;94193.97;;;11.37;78.94
11808;BME280;5961;42.640;23.380;2023-03-24T07:51:44;94176.44;;;11.36;78.54
11808;BME280;5961;42.640;23.380;2023-03-24T07:54:12;94184.09;;;11.50;78.72
11808;BME280;5961;42.640;23.380;2023-03-24T07:56:39;94177.22;;;11.49;78.83
11808;BME280;5961;42.640;23.380;2023-03-24T07:59:06;94196.06;;;11.68;78.21
11808;BME280;5961;42.640;23.380;2023-03-24T08:01:33;94186.44;;;11.76;77.57
11808;BME280;5961;42.640;23.380;2023-03-24T08:04:02;94183.56;;;11.81;77.53
11808;BME280;5961;42.640;23.380;2023-03-24T08:06:28;94136.44;;;11.57;77.52
11808;BME280;5961;42.640;23.380;2023-03-24T08:08:55;94175.19;;;11.94;77.24
11808;BME280;5961;42.640;23.380;2023-03-24T08:11:23;94159.31;;;11.98;77.08
11808;BME280;5961;42.640;23.380;2023-03-24T08:13:50;94173.72;;;12.09;76.88
11808;BME280;5961;42.640;23.380;2023-03-24T08:16:17;94164.72;;;12.14;76.29
11808;BME280;5961;42.640;23.380;2023-03-24T08:18:43;94166.13;;;12.23;76.37
11808;BME280;5961;42.640;23.380;2023-03-24T08:21:10;94175.44;;;12.29;75.81
11808;BME280;5961;42.640;23.380;2023-03-24T08:23:37;94161.53;;;12.36;74.98
11808;BME280;5961;42.640;23.380;2023-03-24T08:26:04;94163.03;;;12.49;74.32
11808;BME280;5961;42.640;23.380;2023-03-24T08:28:32;94167.34;;;12.53;74.11
11808;BME280;5961;42.640;23.380;2023-03-24T08:30:59;94161.34;;;12.56;73.87
11808;BME280;5961;42.640;23.380;2023-03-24T08:33:26;94160.81;;;12.66;74.45
11808;BME280;5961;42.640;23.380;2023-03-24T08:35:52;94162.13;;;12.73;74.73
11808;BME280;5961;42.640;23.380;2023-03-24T08:38:22;94153.88;;;12.78;74.73
11808;BME280;5961;42.640;23.380;2023-03-24T08:40:55;94142.09;;;12.79;74.28
11808;BME280;5961;42.640;23.380;2023-03-24T08:43:23;94125.13;;;12.71;74.64
11808;BME280;5961;42.640;23.380;2023-03-24T08:45:52;94137.19;;;12.96;74.35
11808;BME280;5961;42.640;23.380;2023-03-24T08:48:18;94142.38;;;13.05;73.99
11808;BME280;5961;42.640;23.380;2023-03-24T08:50:46;94134.78;;;13.07;74.04
11808;BME280;5961;42.640;23.380;2023-03-24T08:53:12;94136.13;;;13.13;74.04
11808;BME280;5961;42.640;23.380;2023-03-24T08:55:39;94133.16;;;13.18;73.73
11808;BME280;5961;42.640;23.380;2023-03-24T08:58:08;94123.69;;;13.20;73.07
11808;BME280;5961;42.640;23.380;2023-03-24T09:00:38;94129.91;;;13.25;73.02
11808;BME280;5961;42.640;23.380;2023-03-24T09:03:09;94119.72;;;13.30;72.69
11808;BME280;5961;42.640;23.380;2023-03-24T09:05:37;94122.50;;;13.34;72.18
11808;BME280;5961;42.640;23.380;2023-03-24T09:08:04;94112.31;;;13.39;72.14
11808;BME280;5961;42.640;23.380;2023-03-24T09:10:32;94113.97;;;13.44;72.00
11808;BME280;5961;42.640;23.380;2023-03-24T09:12:59;94115.56;;;13.48;71.67
11808;BME280;5961;42.640;23.380;2023-03-24T09:15:26;94106.44;;;13.49;71.15
11808;BME280;5961;42.640;23.380;2023-03-24T09:17:52;94116.59;;;13.59;71.15
11808;BME280;5961;42.640;23.380;2023-03-24T09:20:20;94095.16;;;13.56;70.94
11808;BME280;5961;42.640;23.380;2023-03-24T09:22:47;94095.81;;;13.68;70.43
11808;BME280;5961;42.640;23.380;2023-03-24T09:25:16;94095.94;;;13.75;69.79
11808;BME280;5961;42.640;23.380;2023-03-24T09:27:44;94104.59;;;13.88;69.68
11808;BME280;5961;42.640;23.380;2023-03-24T09:30:12;94086.28;;;13.87;68.87
11808;BME280;5961;42.640;23.380;2023-03-24T09:32:40;94095.69;;;14.00;68.31
11808;BME280;5961;42.640;23.380;2023-03-24T09:35:07;94098.50;;;14.07;67.50
11808;BME280;5961;42.640;23.380;2023-03-24T09:37:36;94095.13;;;14.10;67.29
11808;BME280;5961;42.640;23.380;2023-03-24T09:40:05;94083.25;;;14.07;66.84
11808;BME280;5961;42.640;23.380;2023-03-24T09:42:34;94101.19;;;14.26;67.11
11808;BME280;5961;42.640;23.380;2023-03-24T09:45:09;94084.84;;;14.31;65.97
11808;BME280;5961;42.640;23.380;2023-03-24T09:47:39;94088.81;;;14.37;66.79
11808;BME280;5961;42.640;23.380;2023-03-24T09:50:16;94084.72;;;14.43;67.24
11808;BME280;5961;42.640;23.380;2023-03-24T09:52:47;94093.22;;;14.49;66.65
11808;BME280;5961;42.640;23.380;2023-03-24T09:55:19;94078.78;;;14.53;66.06
11808;BME280;5961;42.640;23.380;2023-03-24T09:57:49;94079.63;;;14.57;65.61
11808;BME280;5961;42.640;23.380;2023-03-24T10:00:19;94077.06;;;14.64;65.74
11808;BME280;5961;42.640;23.380;2023-03-24T10:02:47;94054.03;;;14.56;65.77
11808;BME280;5961;42.640;23.380;2023-03-24T10:05:16;94060.44;;;14.74;66.10
11808;BME280;5961;42.640;23.380;2023-03-24T10:07:49;94064.00;;;14.82;64.96
11808;BME280;5961;42.640;23.380;2023-03-24T10:10:24;94059.53;;;14.90;64.29
11808;BME280;5961;42.640;23.380;2023-03-24T10:12:56;94061.19;;;14.98;62.78
11808;BME280;5961;42.640;23.380;2023-03-24T10:15:29;94065.13;;;15.04;61.59
11808;BME280;5961;42.640;23.380;2023-03-24T10:18:01;94053.69;;;15.07;61.45
11808;BME280;5961;42.640;23.380;2023-03-24T10:20:34;94044.56;;;15.11;60.49
11808;BME280;5961;42.640;23.380;2023-03-24T10:23:16;94048.53;;;15.21;61.27
11808;BME280;5961;42.640;23.380;2023-03-24T10:25:51;94052.44;;;15.27;60.70
11808;BME280;5961;42.640;23.380;2023-03-24T10:28:23;94047.94;;;15.31;60.05
11808;BME280;5961;42.640;23.380;2023-03-24T10:30:54;94039.56;;;15.36;59.22
11808;BME280;5961;42.640;23.380;2023-03-24T10:33:23;94035.44;;;15.42;59.00
11808;BME280;5961;42.640;23.380;2023-03-24T10:35:54;94030.59;;;15.48;57.92
11808;BME280;5961;42.640;23.380;2023-03-24T10:38:23;94036.09;;;15.58;57.45
11808;BME280;5961;42.640;23.380;2023-03-24T10:40:51;94032.38;;;15.66;56.72
11808;BME280;5961;42.640;23.380;2023-03-24T10:43:18;94023.25;;;15.71;54.98
11808;BME280;5961;42.640;23.380;2023-03-24T10:45:47;94018.63;;;15.71;54.14
11808;BME280;5961;42.640;23.380;2023-03-24T10:48:32;94011.56;;;15.86;54.65
11808;BME280;5961;42.640;23.380;2023-03-24T10:50:59;94024.31;;;15.96;54.97
11808;BME280;5961;42.640;23.380;2023-03-24T10:53:28;94032.81;;;16.05;54.83
11808;BME280;5961;42.640;23.380;2023-03-24T10:55:54;94032.16;;;16.12;54.56
11808;BME280;5961;42.640;23.380;2023-03-24T10:58:28;94013.84;;;16.21;54.83
11808;BME280;5961;42.640;23.380;2023-03-24T11:00:57;93997.75;;;16.21;54.99
11808;BME280;5961;42.640;23.380;2023-03-24T11:03:27;94010.22;;;16.39;54.66
11808;BME280;5961;42.640;23.380;2023-03-24T11:05:59;94003.03;;;16.51;55.05
11808;BME280;5961;42.640;23.380;2023-03-24T11:08:33;94003.63;;;16.70;55.25
11808;BME280;5961;42.640;23.380;2023-03-24T11:11:00;94018.28;;;16.83;52.26
11808;BME280;5961;42.640;23.380;2023-03-24T11:13:38;94004.56;;;16.95;52.15
11808;BME280;5961;42.640;23.380;2023-03-24T11:16:09;94002.38;;;17.08;51.61
11808;BME280;5961;42.640;23.380;2023-03-24T11:18:54;94005.91;;;17.23;50.54
11808;BME280;5961;42.640;23.380;2023-03-24T11:21:21;93998.72;;;17.34;50.18
11808;BME280;5961;42.640;23.380;2023-03-24T11:23:49;93988.81;;;17.48;51.11
11808;BME280;5961;42.640;23.380;2023-03-24T11:26:18;93984.28;;;17.60;48.20
11808;BME280;5961;42.640;23.380;2023-03-24T11:28:49;93973.97;;;17.69;47.91
11808;BME280;5961;42.640;23.380;2023-03-24T11:31:21;93978.22;;;17.77;46.37
11808;BME280;5961;42.640;23.380;2023-03-24T11:33:54;93925.13;;;17.52;45.30
11808;BME280;5961;42.640;23.380;2023-03-24T11:36:39;93972.91;;;17.94;45.43
11808;BME280;5961;42.640;23.380;2023-03-24T11:39:12;93976.78;;;18.11;45.49
11808;BME280;5961;42.640;23.380;2023-03-24T11:41:42;93961.03;;;18.17;45.78
11808;BME280;5961;42.640;23.380;2023-03-24T11:44:18;93965.69;;;18.23;45.08
11808;BME280;5961;42.640;23.380;2023-03-24T11:46:48;93971.47;;;18.46;45.00
11808;BME280;5961;42.640;23.380;2023-03-24T11:49:18;93935.72;;;18.39;45.20
11808;BME280;5961;42.640;23.380;2023-03-24T11:51:50;93952.28;;;18.62;43.44
11808;BME280;5961;42.640;23.380;2023-03-24T11:54:22;93945.00;;;18.73;42.74
11808;BME280;5961;42.640;23.380;2023-03-24T11:56:52;93955.00;;;18.94;42.53
11808;BME280;5961;42.640;23.380;2023-03-24T11:59:27;93946.09;;;19.07;41.91
11808;BME280;5961;42.640;23.380;2023-03-24T12:02:02;93935.34;;;19.14;42.52
11808;BME280;5961;42.640;23.380;2023-03-24T12:04:40;93935.28;;;19.36;43.74
11808;BME280;5961;42.640;23.380;2023-03-24T12:10:54;93929.78;;;19.67;40.94
11808;BME280;5961;42.640;23.380;2023-03-24T12:13:32;93934.38;;;19.81;40.91
11808;BME280;5961;42.640;23.380;2023-03-24T12:16:09;93922.78;;;19.88;41.56
11808;BME280;5961;42.640;23.380;2023-03-24T12:18:54;93917.31;;;19.98;39.11
11808;BME280;5961;42.640;23.380;2023-03-24T12:21:33;93914.25;;;19.96;41.49
11808;BME280;5961;42.640;23.380;2023-03-24T12:24:17;93905.81;;;19.94;41.20
11808;BME280;5961;42.640;23.380;2023-03-24T12:26:51;93911.16;;;19.98;39.98
11808;BME280;5961;42.640;23.380;2023-03-24T12:29:34;93913.13;;;19.90;38.85
11808;BME280;5961;42.640;23.380;2023-03-24T12:32:38;93901.47;;;20.11;38.72
11808;BME280;5961;42.640;23.380;2023-03-24T12:35:29;93896.84;;;20.11;38.75
11808;BME280;5961;42.640;23.380;2023-03-24T12:38:17;93897.03;;;20.42;37.51
11808;BME280;5961;42.640;23.380;2023-03-24T12:41:04;93886.50;;;20.58;37.55
11808;BME280;5961;42.640;23.380;2023-03-24T12:43:46;93888.28;;;20.75;37.37
11808;BME280;5961;42.640;23.380;2023-03-24T12:46:32;93881.13;;;20.95;36.94
11808;BME280;5961;42.640;23.380;2023-03-24T12:49:10;93884.81;;;21.15;37.03
11808;BME280;5961;42.640;23.380;2023-03-24T12:51:44;93880.75;;;21.34;36.23
11808;BME280;5961;42.640;23.380;2023-03-24T12:54:22;93882.91;;;21.50;35.46
11808;BME280;5961;42.640;23.380;2023-03-24T12:56:57;93883.47;;;21.64;34.60
11808;BME280;5961;42.640;23.380;2023-03-24T12:59:30;93864.81;;;21.73;34.35
11808;BME280;5961;42.640;23.380;2023-03-24T13:02:03;93864.78;;;21.77;33.99
11808;BME280;5961;42.640;23.380;2023-03-24T13:04:38;93860.88;;;21.81;35.55
11808;BME280;5961;42.640;23.380;2023-03-24T13:07:09;93851.25;;;21.77;33.95
11808;BME280;5961;42.640;23.380;2023-03-24T13:09:42;93854.78;;;21.74;33.52
11808;BME280;5961;42.640;23.380;2023-03-24T13:12:13;93859.44;;;21.70;34.32
11808;BME280;5961;42.640;23.380;2023-03-24T13:14:50;93855.66;;;21.64;33.98
11808;BME280;5961;42.640;23.380;2023-03-24T13:17:21;93857.16;;;21.68;34.58
11808;BME280;5961;42.640;23.380;2023-03-24T13:19:50;93846.25;;;21.75;33.61
11808;BME280;5961;42.640;23.380;2023-03-24T13:22:21;93847.66;;;21.87;33.70
11808;BME280;5961;42.640;23.380;2023-03-24T13:24:50;93842.88;;;21.98;32.92
11808;BME280;5961;42.640;23.380;2023-03-24T13:27:22;93849.66;;;22.10;32.82
11808;BME280;5961;42.640;23.380;2023-03-24T13:30:05;93843.72;;;22.18;33.11
11808;BME280;5961;42.640;23.380;2023-03-24T13:32:41;93841.69;;;22.26;31.74
11808;BME280;5961;42.640;23.380;2023-03-24T13:35:17;93842.22;;;22.40;31.90